createdAt,value
2018-09-29T00:02:19.283Z,2.73
2018-09-29T00:04:46.725Z,2.23
2018-09-29T00:07:14.355Z,2.80
2018-09-29T00:09:41.705Z,2.90
2018-09-29T00:12:09.060Z,2.53
2018-09-29T00:14:36.565Z,2.73
2018-09-29T00:17:03.982Z,2.50
2018-09-29T00:19:31.332Z,2.40
2018-09-29T00:21:58.732Z,3.43
2018-09-29T00:24:26.090Z,2.40
2018-09-29T00:26:53.617Z,2.80
2018-09-29T00:29:21.013Z,2.77
2018-09-29T00:31:48.408Z,2.70
2018-09-29T00:34:15.763Z,2.80
2018-09-29T00:36:43.141Z,2.70
2018-09-29T00:39:10.572Z,2.93
2018-09-29T00:41:37.924Z,3.00
2018-09-29T00:44:05.316Z,2.40
2018-09-29T00:46:32.669Z,2.70
2018-09-29T00:49:00.013Z,2.67
2018-09-29T00:51:27.404Z,3.13
2018-09-29T00:53:54.764Z,2.40
2018-09-29T00:56:22.115Z,2.57
2018-09-29T00:58:49.529Z,3.17
2018-09-29T01:01:16.890Z,2.80
2018-09-29T01:03:44.443Z,3.53
2018-09-29T01:06:11.951Z,2.73
2018-09-29T01:08:39.370Z,3.17
2018-09-29T01:11:06.750Z,2.93
2018-09-29T01:13:34.141Z,2.40
2018-09-29T01:16:01.506Z,2.57
2018-09-29T01:18:28.984Z,3.00
2018-09-29T01:20:56.358Z,2.23
2018-09-29T01:23:23.705Z,2.13
2018-09-29T01:25:51.160Z,2.33
2018-09-29T01:28:18.637Z,2.20
2018-09-29T01:30:46.061Z,2.27
2018-09-29T01:33:13.421Z,3.10
2018-09-29T01:35:40.874Z,2.00
2018-09-29T01:38:08.236Z,2.50
2018-09-29T01:40:35.681Z,1.67
2018-09-29T01:43:03.097Z,2.10
2018-09-29T01:45:30.437Z,2.37
2018-09-29T01:47:57.792Z,2.67
2018-09-29T01:50:25.420Z,2.73
2018-09-29T01:52:53.129Z,2.33
2018-09-29T01:55:20.527Z,2.00
2018-09-29T01:57:47.929Z,1.90
2018-09-29T02:00:15.325Z,2.20
2018-09-29T02:02:42.696Z,2.03
2018-09-29T02:05:10.356Z,2.30
2018-09-29T02:07:37.832Z,2.27
2018-09-29T02:10:05.250Z,2.13
2018-09-29T02:12:32.639Z,1.70
2018-09-29T02:14:59.993Z,2.17
2018-09-29T02:17:27.433Z,2.10
2018-09-29T02:19:54.882Z,1.83
2018-09-29T02:22:22.249Z,2.13
2018-09-29T02:24:49.641Z,2.00
2018-09-29T02:27:17.068Z,2.50
2018-09-29T02:29:44.509Z,2.07
2018-09-29T02:32:11.865Z,1.83
2018-09-29T02:34:39.237Z,2.10
2018-09-29T02:37:06.598Z,1.93
2018-09-29T02:39:34.032Z,2.40
2018-09-29T02:42:01.485Z,2.00
2018-09-29T02:44:28.840Z,2.03
2018-09-29T02:46:56.209Z,1.80
2018-09-29T02:49:23.592Z,2.10
2018-09-29T02:51:50.941Z,2.30
2018-09-29T02:54:18.365Z,1.80
2018-09-29T02:56:45.825Z,2.07
2018-09-29T02:59:13.173Z,2.23
2018-09-29T03:01:40.540Z,2.07
2018-09-29T03:04:08.091Z,2.10
2018-09-29T03:06:35.446Z,2.13
2018-09-29T03:09:02.942Z,2.00
2018-09-29T03:11:30.558Z,1.77
2018-09-29T03:13:57.922Z,1.83
2018-09-29T03:16:25.293Z,1.97
2018-09-29T03:18:52.682Z,1.73
2018-09-29T03:21:20.044Z,1.83
2018-09-29T03:23:47.513Z,1.83
2018-09-29T03:26:14.904Z,1.87
2018-09-29T03:28:42.253Z,1.97
2018-09-29T03:31:09.713Z,1.63
2018-09-29T03:33:37.165Z,2.60
2018-09-29T03:36:04.615Z,2.00
2018-09-29T03:38:31.963Z,2.10
2018-09-29T03:40:59.527Z,2.03
2018-09-29T03:43:26.872Z,1.80
2018-09-29T03:45:54.318Z,1.73
2018-09-29T03:48:21.798Z,1.90
2018-09-29T03:50:49.252Z,2.30
2018-09-29T03:53:16.688Z,2.00
2018-09-29T03:55:44.076Z,2.20
2018-09-29T03:58:11.498Z,2.00
2018-09-29T04:00:38.840Z,2.47
2018-09-29T04:03:06.280Z,2.30
2018-09-29T04:05:33.768Z,2.10
2018-09-29T04:08:01.149Z,2.47
2018-09-29T04:10:28.606Z,1.90
2018-09-29T04:12:55.957Z,1.97
2018-09-29T04:15:23.413Z,2.10
2018-09-29T04:17:50.973Z,1.70
2018-09-29T04:20:18.325Z,1.77
2018-09-29T04:22:45.705Z,1.70
2018-09-29T04:25:13.178Z,1.83
2018-09-29T04:27:40.648Z,2.03
2018-09-29T04:30:08.029Z,2.63
2018-09-29T04:32:35.519Z,1.83
2018-09-29T04:35:03.014Z,2.53
2018-09-29T04:37:30.393Z,1.40
2018-09-29T04:39:57.878Z,2.20
2018-09-29T04:42:25.225Z,1.93
2018-09-29T04:44:52.593Z,2.27
2018-09-29T04:47:20.061Z,2.23
2018-09-29T04:49:47.434Z,3.03
2018-09-29T04:52:14.813Z,2.27
2018-09-29T04:54:42.219Z,2.57
2018-09-29T04:57:09.592Z,2.27
2018-09-29T04:59:36.998Z,3.23
2018-09-29T05:02:04.456Z,2.60
2018-09-29T05:04:31.816Z,2.37
2018-09-29T05:06:59.166Z,2.80
2018-09-29T05:09:26.635Z,2.80
2018-09-29T05:11:53.982Z,2.83
2018-09-29T05:14:21.361Z,2.47
2018-09-29T05:16:48.748Z,2.70
2018-09-29T05:19:16.136Z,2.73
2018-09-29T05:21:43.501Z,2.27
2018-09-29T05:24:10.889Z,2.73
2018-09-29T05:26:38.242Z,2.47
2018-09-29T05:29:05.749Z,2.07
2018-09-29T05:31:33.260Z,2.60
2018-09-29T05:34:00.626Z,2.43
2018-09-29T05:36:28.088Z,2.30
2018-09-29T05:38:55.472Z,2.27
2018-09-29T05:41:22.850Z,2.40
2018-09-29T05:43:50.202Z,2.60
2018-09-29T05:46:17.593Z,2.17
2018-09-29T05:48:44.970Z,2.17
2018-09-29T05:51:12.417Z,2.30
2018-09-29T05:53:39.931Z,2.20
2018-09-29T05:56:07.281Z,2.00
2018-09-29T05:58:34.635Z,2.50
2018-09-29T06:01:02.037Z,2.37
2018-09-29T06:03:29.489Z,2.60
2018-09-29T06:05:56.954Z,2.37
2018-09-29T06:08:24.461Z,1.83
2018-09-29T06:10:51.825Z,2.60
2018-09-29T06:13:19.236Z,2.30
2018-09-29T06:15:46.760Z,2.50
2018-09-29T06:18:14.120Z,1.70
2018-09-29T06:20:41.477Z,2.67
2018-09-29T06:23:08.973Z,2.50
2018-09-29T06:25:36.353Z,2.30
2018-09-29T06:28:03.729Z,1.90
2018-09-29T06:30:31.282Z,2.37
2018-09-29T06:32:58.659Z,3.10
2018-09-29T06:35:26.010Z,3.57
2018-09-29T06:37:53.651Z,2.80
2018-09-29T06:40:21.021Z,3.10
2018-09-29T06:42:48.528Z,2.30
2018-09-29T06:45:15.933Z,2.10
2018-09-29T06:47:43.317Z,3.03
2018-09-29T06:50:10.841Z,2.43
2018-09-29T06:52:38.217Z,2.20
2018-09-29T06:55:05.747Z,2.30
2018-09-29T06:57:33.108Z,2.50
2018-09-29T07:00:00.517Z,2.70
2018-09-29T07:02:28.009Z,2.77
2018-09-29T07:04:55.378Z,2.60
2018-09-29T07:07:22.965Z,2.73
2018-09-29T07:09:50.385Z,2.43
2018-09-29T07:12:17.750Z,2.37
2018-09-29T07:14:45.180Z,2.13
2018-09-29T07:17:12.704Z,2.90
2018-09-29T07:19:40.098Z,2.83
2018-09-29T07:22:07.572Z,1.90
2018-09-29T07:24:34.914Z,2.40
2018-09-29T07:27:02.275Z,2.40
2018-09-29T07:29:29.669Z,2.63
2018-09-29T07:31:57.041Z,2.97
2018-09-29T07:34:24.445Z,2.63
2018-09-29T07:36:51.809Z,2.73
2018-09-29T07:39:19.174Z,2.83
2018-09-29T07:41:46.587Z,1.80
2018-09-29T07:44:13.965Z,1.80
2018-09-29T07:46:41.314Z,2.30
2018-09-29T07:49:08.954Z,2.63
2018-09-29T07:51:36.331Z,2.37
2018-09-29T07:54:03.756Z,2.30
2018-09-29T07:56:31.118Z,2.03
2018-09-29T07:58:58.502Z,2.30
2018-09-29T08:01:25.866Z,1.90
2018-09-29T08:03:53.218Z,1.90
2018-09-29T08:06:20.707Z,3.50
2018-09-29T08:08:48.273Z,2.00
2018-09-29T08:11:15.636Z,2.27
2018-09-29T08:13:43.037Z,2.13
2018-09-29T08:16:10.608Z,2.17
2018-09-29T08:18:38.162Z,1.93
2018-09-29T08:21:05.568Z,2.27
2018-09-29T08:23:33.064Z,1.80
2018-09-29T08:26:00.430Z,2.07
2018-09-29T08:28:27.936Z,1.50
2018-09-29T08:30:55.392Z,1.60
2018-09-29T08:33:22.753Z,1.87
2018-09-29T08:35:50.165Z,2.40
2018-09-29T08:38:17.775Z,2.10
2018-09-29T08:40:45.170Z,1.80
2018-09-29T08:43:12.654Z,2.10
2018-09-29T08:45:40.201Z,1.70
2018-09-29T08:48:07.618Z,1.67
2018-09-29T08:50:35.303Z,1.60
2018-09-29T08:53:02.751Z,2.03
2018-09-29T08:55:30.140Z,1.80
2018-09-29T08:57:57.537Z,1.97
2018-09-29T09:00:24.895Z,1.67
2018-09-29T09:02:52.288Z,1.70
2018-09-29T09:05:19.778Z,1.90
2018-09-29T09:07:47.142Z,1.40
2018-09-29T09:10:14.508Z,1.40
2018-09-29T09:12:42.061Z,1.73
2018-09-29T09:15:09.534Z,1.30
2018-09-29T09:17:36.916Z,1.70
2018-09-29T09:20:04.685Z,1.80
2018-09-29T09:22:32.165Z,1.53
2018-09-29T09:24:59.539Z,1.80
2018-09-29T09:27:27.041Z,1.70
2018-09-29T09:29:54.494Z,2.03
2018-09-29T09:32:22.060Z,1.97
2018-09-29T09:34:49.436Z,2.40
2018-09-29T09:37:16.791Z,3.37
2018-09-29T09:39:44.201Z,2.63
2018-09-29T09:42:11.685Z,1.43
2018-09-29T09:44:39.257Z,1.77
2018-09-29T09:47:06.630Z,2.80
2018-09-29T09:49:34.195Z,1.97
2018-09-29T09:52:01.589Z,6.77
2018-09-29T09:54:28.944Z,1.67
2018-09-29T09:56:56.318Z,2.10
2018-09-29T09:59:23.685Z,1.40
2018-09-29T10:01:56.598Z,1.80
2018-09-29T10:04:24.070Z,2.10
2018-09-29T10:06:51.437Z,1.23
2018-09-29T10:09:18.913Z,1.80
2018-09-29T10:11:46.319Z,1.53
2018-09-29T10:14:13.744Z,1.33
2018-09-29T10:16:41.233Z,1.67
2018-09-29T10:19:08.610Z,1.43
2018-09-29T10:21:36.005Z,1.80
2018-09-29T10:24:03.595Z,1.87
2018-09-29T10:26:31.002Z,1.53
2018-09-29T10:28:58.400Z,1.30
2018-09-29T10:31:25.946Z,1.40
2018-09-29T10:33:53.305Z,1.50
2018-09-29T10:36:20.826Z,1.63
2018-09-29T10:38:48.257Z,1.20
2018-09-29T10:41:15.613Z,1.30
2018-09-29T10:43:42.988Z,1.03
2018-09-29T10:46:10.771Z,1.60
2018-09-29T10:48:38.298Z,1.30
2018-09-29T10:51:05.758Z,1.67
2018-09-29T10:53:33.145Z,1.20
2018-09-29T10:56:00.565Z,1.43
2018-09-29T10:58:28.897Z,1.53
2018-09-29T11:00:56.653Z,1.40
2018-09-29T11:03:24.235Z,1.00
2018-09-29T11:05:51.763Z,1.23
2018-09-29T11:08:19.278Z,1.40
2018-09-29T11:10:46.678Z,1.47
2018-09-29T11:13:14.054Z,1.63
2018-09-29T11:15:41.489Z,1.30
2018-09-29T11:18:08.842Z,1.20
2018-09-29T11:20:36.190Z,1.07
2018-09-29T11:23:03.607Z,1.40
2018-09-29T11:25:30.961Z,1.63
2018-09-29T11:27:58.682Z,1.27
2018-09-29T11:30:26.141Z,1.50
2018-09-29T11:32:53.488Z,1.00
2018-09-29T11:35:21.088Z,0.90
2018-09-29T11:37:48.602Z,0.80
2018-09-29T11:40:16.137Z,1.00
2018-09-29T11:42:43.493Z,1.00
2018-09-29T11:45:11.008Z,0.93
2018-09-29T11:47:38.356Z,1.50
2018-09-29T11:50:05.718Z,1.40
2018-09-29T11:52:33.145Z,1.17
2018-09-29T11:55:00.567Z,1.17
2018-09-29T11:57:27.950Z,1.50
2018-09-29T11:59:55.330Z,1.73
2018-09-29T12:02:22.831Z,1.47
2018-09-29T12:04:50.343Z,1.00
2018-09-29T12:07:17.845Z,1.23
2018-09-29T12:09:45.348Z,1.13
2018-09-29T12:12:12.812Z,1.00
2018-09-29T12:14:40.185Z,0.90
2018-09-29T12:17:07.551Z,0.93
2018-09-29T12:19:35.073Z,0.83
2018-09-29T12:22:02.453Z,0.90
2018-09-29T12:24:29.932Z,0.97
2018-09-29T12:26:57.325Z,0.83
2018-09-29T12:29:24.759Z,1.10
2018-09-29T12:31:52.083Z,1.37
2018-09-29T12:34:19.469Z,0.90
2018-09-29T12:36:46.950Z,1.20
2018-09-29T12:39:14.333Z,1.00
2018-09-29T12:41:41.684Z,1.30
2018-09-29T12:44:09.916Z,1.03
2018-09-29T12:46:37.274Z,1.87
2018-09-29T12:49:04.789Z,1.30
2018-09-29T12:51:32.251Z,8.40
2018-09-29T12:53:59.600Z,1.37
2018-09-29T12:56:27.433Z,1.57
2018-09-29T12:58:54.870Z,1.10
2018-09-29T13:01:22.199Z,1.00
2018-09-29T13:03:49.707Z,1.20
2018-09-29T13:06:17.089Z,1.03
2018-09-29T13:08:44.455Z,2.80
2018-09-29T13:11:11.812Z,4.60
2018-09-29T13:13:39.319Z,2.97
2018-09-29T13:16:06.670Z,1.57
2018-09-29T13:18:34.033Z,4.87
2018-09-29T13:21:01.410Z,3.50
2018-09-29T13:23:28.831Z,6.07
2018-09-29T13:25:56.186Z,3.20
2018-09-29T13:28:23.591Z,3.30
2018-09-29T13:30:50.958Z,1.80
2018-09-29T13:33:18.437Z,1.70
2018-09-29T13:35:45.935Z,1.60
2018-09-29T13:38:13.300Z,1.40
2018-09-29T13:40:40.657Z,1.27
2018-09-29T13:43:08.088Z,3.87
2018-09-29T13:45:35.440Z,1.63
2018-09-29T13:48:02.897Z,1.60
2018-09-29T13:50:30.309Z,1.63
2018-09-29T13:52:57.660Z,1.50
2018-09-29T13:55:25.024Z,0.90
2018-09-29T13:57:52.538Z,0.90
2018-09-29T14:00:20.041Z,1.30
2018-09-29T14:02:47.404Z,0.83
2018-09-29T14:05:14.879Z,1.00
2018-09-29T14:07:42.229Z,2.50
2018-09-29T14:10:09.632Z,1.20
2018-09-29T14:12:37.033Z,1.20
2018-09-29T14:15:04.608Z,1.37
2018-09-29T14:17:32.073Z,1.23
2018-09-29T14:19:59.575Z,1.03
2018-09-29T14:22:26.882Z,1.37
2018-09-29T14:24:54.275Z,1.40
2018-09-29T14:27:21.786Z,1.20
2018-09-29T14:29:49.347Z,1.00
2018-09-29T14:32:16.705Z,1.40
2018-09-29T14:34:44.233Z,1.40
2018-09-29T14:37:11.696Z,1.20
2018-09-29T14:39:39.145Z,1.50
2018-09-29T14:42:06.630Z,1.70
2018-09-29T14:44:34.013Z,1.20
2018-09-29T14:47:01.365Z,1.83
2018-09-29T14:49:28.847Z,1.30
2018-09-29T14:51:56.218Z,1.00
2018-09-29T14:54:23.597Z,1.50
2018-09-29T14:56:50.993Z,0.90
2018-09-29T14:59:18.375Z,0.90
2018-09-29T15:01:46.028Z,0.80
2018-09-29T15:04:13.660Z,1.00
2018-09-29T15:06:41.144Z,1.00
2018-09-29T15:09:08.985Z,0.90
2018-09-29T15:11:36.634Z,1.00
2018-09-29T15:14:04.036Z,1.03
2018-09-29T15:16:31.436Z,1.83
2018-09-29T15:18:59.101Z,1.30
2018-09-29T15:21:26.461Z,1.50
2018-09-29T15:23:53.831Z,1.40
2018-09-29T15:26:21.255Z,1.70
2018-09-29T15:28:49.025Z,1.60
2018-09-29T15:31:16.431Z,1.47
2018-09-29T15:33:43.933Z,1.47
2018-09-29T15:36:12.111Z,1.80
2018-09-29T15:38:39.605Z,1.70
2018-09-29T15:41:07.069Z,1.37
2018-09-29T15:43:34.602Z,1.50
2018-09-29T15:46:01.996Z,1.70
2018-09-29T15:48:29.467Z,1.57
2018-09-29T15:50:56.841Z,1.90
2018-09-29T15:53:24.203Z,1.50
2018-09-29T15:55:51.710Z,1.50
2018-09-29T15:58:19.100Z,1.30
2018-09-29T16:00:46.472Z,1.23
2018-09-29T16:03:13.922Z,1.50
2018-09-29T16:05:41.388Z,1.87
2018-09-29T16:08:08.851Z,1.30
2018-09-29T16:10:36.520Z,1.40
2018-09-29T16:13:04.035Z,1.33
2018-09-29T16:15:31.444Z,1.47
2018-09-29T16:17:58.946Z,1.40
2018-09-29T16:20:26.476Z,1.50
2018-09-29T16:22:53.842Z,1.27
2018-09-29T16:25:21.562Z,1.60
2018-09-29T16:27:49.032Z,1.60
2018-09-29T16:30:16.488Z,1.87
2018-09-29T16:32:43.917Z,2.13
2018-09-29T16:35:11.382Z,3.37
2018-09-29T16:37:39.085Z,3.27
2018-09-29T16:40:06.545Z,2.63
2018-09-29T16:42:33.981Z,4.43
2018-09-29T16:45:01.373Z,7.27
2018-09-29T16:47:28.901Z,5.33
2018-09-29T16:49:56.285Z,4.13
2018-09-29T16:52:23.714Z,3.43
2018-09-29T16:54:51.256Z,5.00
2018-09-29T16:57:18.944Z,4.50
2018-09-29T16:59:46.937Z,7.87
2018-09-29T17:02:14.432Z,8.77
2018-09-29T17:04:42.222Z,7.30
2018-09-29T17:07:09.660Z,6.43
2018-09-29T17:09:37.125Z,5.53
2018-09-29T17:12:04.857Z,5.27
2018-09-29T17:14:32.288Z,4.00
2018-09-29T17:16:59.766Z,8.40
2018-09-29T17:19:27.116Z,15.10
2018-09-29T17:21:54.728Z,13.13
2018-09-29T17:24:22.161Z,13.63
2018-09-29T17:26:49.597Z,17.87
2018-09-29T17:29:16.981Z,12.00
2018-09-29T17:31:44.463Z,16.33
2018-09-29T17:34:12.125Z,14.87
2018-09-29T17:36:39.525Z,14.77
2018-09-29T17:39:07.890Z,12.07
2018-09-29T17:41:35.379Z,10.87
2018-09-29T17:44:02.822Z,9.37
2018-09-29T17:46:30.317Z,29.13
2018-09-29T17:48:57.793Z,36.97
2018-09-29T17:51:25.267Z,40.90
2018-09-29T17:53:52.724Z,59.97
2018-09-29T17:56:20.126Z,55.50
2018-09-29T17:58:47.654Z,36.43
2018-09-29T18:01:15.065Z,33.50
2018-09-29T18:03:42.622Z,31.33
2018-09-29T18:06:10.126Z,33.37
2018-09-29T18:08:37.642Z,37.60
2018-09-29T18:11:05.065Z,22.80
2018-09-29T18:13:32.634Z,29.43
2018-09-29T18:16:00.023Z,23.00
2018-09-29T18:18:27.457Z,22.03
2018-09-29T18:20:54.841Z,20.53
2018-09-29T18:23:22.492Z,18.40
2018-09-29T18:25:50.041Z,22.93
2018-09-29T18:28:17.437Z,23.63
2018-09-29T18:30:44.858Z,17.80
2018-09-29T18:33:12.408Z,66.07
2018-09-29T18:35:39.915Z,88.67
2018-09-29T18:38:07.409Z,41.00
2018-09-29T18:40:34.849Z,25.20
2018-09-29T18:43:02.273Z,32.30
2018-09-29T18:45:29.795Z,36.03
2018-09-29T18:47:57.309Z,37.67
2018-09-29T18:50:24.885Z,34.43
2018-09-29T18:52:52.333Z,29.37
2018-09-29T18:55:19.725Z,26.43
2018-09-29T18:57:47.250Z,23.73
2018-09-29T19:00:14.867Z,21.73
2018-09-29T19:02:42.268Z,15.23
2018-09-29T19:05:09.753Z,14.67
2018-09-29T19:07:37.173Z,16.30
2018-09-29T19:10:04.746Z,18.63
2018-09-29T19:12:32.130Z,19.47
2018-09-29T19:14:59.634Z,18.90
2018-09-29T19:17:27.088Z,18.53
2018-09-29T19:19:54.656Z,19.67
2018-09-29T19:22:22.213Z,17.30
2018-09-29T19:24:49.893Z,16.83
2018-09-29T19:27:17.658Z,20.17
2018-09-29T19:29:45.253Z,22.23
2018-09-29T19:32:12.656Z,23.40
2018-09-29T19:34:40.061Z,26.13
2018-09-29T19:37:07.604Z,23.27
2018-09-29T19:39:35.044Z,21.30
2018-09-29T19:42:02.514Z,23.17
2018-09-29T19:44:30.125Z,21.33
2018-09-29T19:46:57.604Z,22.97
2018-09-29T19:49:25.839Z,23.13
2018-09-29T19:51:53.256Z,22.17
2018-09-29T19:54:20.710Z,24.47
2018-09-29T19:56:48.121Z,23.73
2018-09-29T19:59:15.520Z,24.50
2018-09-29T20:01:42.972Z,20.53
2018-09-29T20:04:10.364Z,14.87
2018-09-29T20:06:37.892Z,14.03
2018-09-29T20:09:06.730Z,15.40
2018-09-29T20:11:35.057Z,15.40
2018-09-29T20:14:02.716Z,14.00
2018-09-29T20:16:30.228Z,17.10
2018-09-29T20:18:57.629Z,19.13
2018-09-29T20:21:25.097Z,21.47
2018-09-29T20:23:52.624Z,22.07
2018-09-29T20:26:20.121Z,22.03
2018-09-29T20:28:47.549Z,22.77
2018-09-29T20:31:15.049Z,21.87
2018-09-29T20:33:42.498Z,19.53
2018-09-29T20:36:09.949Z,19.70
2018-09-29T20:38:37.473Z,17.70
2018-09-29T20:41:04.896Z,17.90
2018-09-29T20:43:32.372Z,19.37
2018-09-29T20:45:59.873Z,19.47
2018-09-29T20:48:27.441Z,21.07
2018-09-29T20:50:54.865Z,20.60
2018-09-29T20:53:22.333Z,24.10
2018-09-29T20:55:49.825Z,25.47
2018-09-29T20:58:17.240Z,24.43
2018-09-29T21:00:44.689Z,25.57
2018-09-29T21:03:12.189Z,25.33
2018-09-29T21:05:39.589Z,25.57
2018-09-29T21:08:07.050Z,24.00
2018-09-29T21:10:34.512Z,27.20
2018-09-29T21:13:02.017Z,22.83
2018-09-29T21:15:29.313Z,20.33
2018-09-29T21:17:56.686Z,20.50
2018-09-29T21:20:24.116Z,22.20
2018-09-29T21:22:51.662Z,23.07
2018-09-29T21:25:19.037Z,23.60
2018-09-29T21:27:46.713Z,22.67
2018-09-29T21:30:14.169Z,23.10
2018-09-29T21:32:41.569Z,22.47
2018-09-29T21:35:08.989Z,23.47
2018-09-29T21:37:36.426Z,22.10
2018-09-29T21:40:03.806Z,21.63
2018-09-29T21:42:31.269Z,22.27
2018-09-29T21:44:58.713Z,22.17
2018-09-29T21:47:26.193Z,21.90
2018-09-29T21:49:53.621Z,22.20
2018-09-29T21:52:21.162Z,23.07
2018-09-29T21:54:48.408Z,20.53
2018-09-29T21:57:16.105Z,21.20
2018-09-29T21:59:43.489Z,23.50
2018-09-29T22:02:10.854Z,21.43
2018-09-29T22:04:38.317Z,20.57
2018-09-29T22:07:05.727Z,22.10
2018-09-29T22:09:33.101Z,22.83
2018-09-29T22:12:00.757Z,21.67
2018-09-29T22:14:28.169Z,21.97
2018-09-29T22:16:55.560Z,22.47
2018-09-29T22:19:22.954Z,22.00
2018-09-29T22:21:50.305Z,21.70
2018-09-29T22:24:17.697Z,21.63
2018-09-29T22:26:45.090Z,23.77
2018-09-29T22:29:12.509Z,22.23
2018-09-29T22:31:39.891Z,21.77
2018-09-29T22:34:07.430Z,20.17
2018-09-29T22:36:34.796Z,23.13
2018-09-29T22:39:02.236Z,20.87
2018-09-29T22:41:29.621Z,20.77
2018-09-29T22:43:57.067Z,22.63
2018-09-29T22:46:24.436Z,21.40
2018-09-29T22:48:52.130Z,20.47
2018-09-29T22:51:19.494Z,21.57
2018-09-29T22:53:46.980Z,22.13
2018-09-29T22:56:14.394Z,21.40
2018-09-29T22:58:41.874Z,20.47
2018-09-29T23:01:09.253Z,22.07
2018-09-29T23:03:36.637Z,21.47
2018-09-29T23:06:03.997Z,22.63
2018-09-29T23:08:31.428Z,23.20
2018-09-29T23:10:58.816Z,21.77
2018-09-29T23:13:26.307Z,21.43
2018-09-29T23:15:53.680Z,20.80
2018-09-29T23:18:21.084Z,20.97
2018-09-29T23:20:48.437Z,20.30
2018-09-29T23:23:15.908Z,20.70
2018-09-29T23:25:43.314Z,19.90
2018-09-29T23:28:10.881Z,20.47
2018-09-29T23:30:38.368Z,18.23
2018-09-29T23:33:05.821Z,19.10
2018-09-29T23:35:33.201Z,20.33
2018-09-29T23:38:00.713Z,19.53
2018-09-29T23:40:28.104Z,19.50
2018-09-29T23:42:55.457Z,18.57
2018-09-29T23:45:22.850Z,20.00
2018-09-29T23:47:50.233Z,19.57
2018-09-29T23:50:17.601Z,18.70
2018-09-29T23:52:45.013Z,19.53
2018-09-29T23:55:12.409Z,18.87
2018-09-29T23:57:39.926Z,19.70
